Aeroporto :
LOGIN :

Iscrizione | Disclaimer

   EN    FR    IT 

 










Sommario :    VFR   VFR Marginale   IFR   IFR Intensivo   IFR Molto Intensivo
Visibilità : 
Base nubi : 
>= 8 km
>= 3000ft
5 / 8 km
1000 / 3000 ft
1500m / 5 km
500 / 1000 ft
800 / 1500m
200 / 500 ft
< 800m
< 200 ft
Simboli :   Temporali  Nebbia  Neve Forte  Precipitazioni Forti  Vento > 20 kt
SIGMETs :   Varie  Temporali  Ghiacco  Turbolenza  Onda orograficha  Ceneri Vulcaniche






- Altitudine del aeroporto : 7 ft
- Codice IATA : XHE


LFTH - Hyeres

ULTIMO METAR :
  • 260600Z AUTO 03006KT CAVOK 11/08 Q1021 NOSIG

METARs OBSOLETI :
  • 260530Z AUTO 03008KT CAVOK 12/08 Q1021 NOSIG
  • 260500Z AUTO 04008KT 9999 NSC 12/08 Q1021 NOSIG
  • 260430Z AUTO 04008KT CAVOK 13/08 Q1021 NOSIG
  • 260400Z AUTO 04007KT 9999 SCT033 BKN045 OVC078 13/09 Q1021 NOSIG
  • 260330Z AUTO 04009KT 9999 FEW027 BKN048 OVC080 13/09 Q1021 NOSIG

TAF TAF LFTH
Valido dal 26 a 03 ore il 27 a 03 ore UTC


260200Z 2603/2703 03010KT CAVOK
BECMG 2609/2611 09012KT
TEMPO 2611/2703 08015G25KT BKN020



MetMap, La meteo Aeronautica in un colpo d'occhio ! - Copyright ORBIFLY Dicembre 2007 - Disclaimer

ORBIFLY MET'MAP TEAM :

Programmazione e sviluppo : Alexandra Zaïnal
Concezione : Baudouin d'Aumeries
Aiuto per la programmazione : Marc-Olivier Méhu
Supporto tecnico e logistico : Manuel Goepfert
Aiuto per la traduzione : Arnaldo La Scala

Contatto : metmap@orbifly.com




FONTI E CREDITI :

   NOAA